createdAt,value
2023-06-07T00:01:55.689Z,18.68
2023-06-07T00:04:23.041Z,18.67
2023-06-07T00:06:49.925Z,18.68
2023-06-07T00:09:16.738Z,18.65
2023-06-07T00:11:43.884Z,18.65
2023-06-07T00:14:11.055Z,18.64
2023-06-07T00:16:37.887Z,18.62
2023-06-07T00:19:04.983Z,18.63
2023-06-07T00:21:31.922Z,18.61
2023-06-07T00:23:58.772Z,18.60
2023-06-07T00:26:25.964Z,18.60
2023-06-07T00:28:52.916Z,18.60
2023-06-07T00:31:19.792Z,18.59
2023-06-07T00:33:46.731Z,18.59
2023-06-07T00:36:13.535Z,18.57
2023-06-07T00:38:40.416Z,18.56
2023-06-07T00:41:07.246Z,18.57
2023-06-07T00:43:34.045Z,18.56
2023-06-07T00:46:00.947Z,18.55
2023-06-07T00:48:28.694Z,18.52
2023-06-07T00:50:56.982Z,18.54
2023-06-07T00:53:24.295Z,18.53
2023-06-07T00:55:51.172Z,18.50
2023-06-07T00:58:18.763Z,18.50
2023-06-07T01:00:45.632Z,18.50
2023-06-07T01:03:12.816Z,18.49
2023-06-07T01:05:39.765Z,18.47
2023-06-07T01:08:06.737Z,18.47
2023-06-07T01:10:33.716Z,18.46
2023-06-07T01:13:03.643Z,18.45
2023-06-07T01:15:31.911Z,18.43
2023-06-07T01:17:59.503Z,18.42
2023-06-07T01:20:27.588Z,18.41
2023-06-07T01:23:04.666Z,18.39
2023-06-07T01:25:31.455Z,18.37
2023-06-07T01:28:01.451Z,18.37
2023-06-07T01:30:32.925Z,18.36
2023-06-07T01:33:04.072Z,18.33
2023-06-07T01:35:32.977Z,18.33
2023-06-07T01:38:00.064Z,18.31
2023-06-07T01:40:27.861Z,18.31
2023-06-07T01:42:55.849Z,18.28
2023-06-07T01:45:23.077Z,18.26
2023-06-07T01:47:50.184Z,18.25
2023-06-07T01:50:23.800Z,18.23
2023-06-07T01:52:50.692Z,18.21
2023-06-07T01:55:18.458Z,18.21
2023-06-07T01:57:47.575Z,18.21
2023-06-07T02:00:24.812Z,18.17
2023-06-07T02:02:57.843Z,18.15
2023-06-07T02:05:34.995Z,18.15
2023-06-07T02:08:15.293Z,18.14
2023-06-07T02:10:43.480Z,18.12
2023-06-07T02:13:11.224Z,18.11
2023-06-07T02:15:38.028Z,18.11
2023-06-07T02:18:05.795Z,18.10
2023-06-07T02:20:35.876Z,18.09
2023-06-07T02:23:03.423Z,18.09
2023-06-07T02:25:31.944Z,18.08
2023-06-07T02:28:00.169Z,18.07
2023-06-07T02:30:27.126Z,18.06
2023-06-07T02:32:55.583Z,18.06
2023-06-07T02:35:23.518Z,18.05
2023-06-07T02:37:50.839Z,18.04
2023-06-07T02:40:17.789Z,18.04
2023-06-07T02:42:46.240Z,18.05
2023-06-07T02:45:16.320Z,18.03
2023-06-07T02:47:44.341Z,18.02
2023-06-07T02:50:11.597Z,18.02
2023-06-07T02:52:38.576Z,18.02
2023-06-07T02:55:05.811Z,18.00
2023-06-07T02:57:32.712Z,18.00
2023-06-07T02:59:59.524Z,17.99
2023-06-07T03:02:27.299Z,17.99
2023-06-07T03:04:54.727Z,17.98
2023-06-07T03:07:21.738Z,17.97
2023-06-07T03:09:48.919Z,17.96
2023-06-07T03:12:15.811Z,17.95
2023-06-07T03:14:43.749Z,17.94
2023-06-07T03:17:12.917Z,17.92
2023-06-07T03:19:39.884Z,17.93
2023-06-07T03:22:09.882Z,17.92
2023-06-07T03:24:39.990Z,17.92
2023-06-07T03:27:09.510Z,17.90
2023-06-07T03:29:36.370Z,17.90
2023-06-07T03:32:03.571Z,17.89
2023-06-07T03:34:30.935Z,17.88
2023-06-07T03:36:57.755Z,17.88
2023-06-07T03:39:24.571Z,17.88
2023-06-07T03:41:51.468Z,17.86
2023-06-07T03:44:18.250Z,17.88
2023-06-07T03:46:45.032Z,17.87
2023-06-07T03:49:11.946Z,17.86
2023-06-07T03:51:40.081Z,17.86
2023-06-07T03:54:06.926Z,17.87
2023-06-07T03:56:33.710Z,17.86
2023-06-07T03:59:02.978Z,17.87
2023-06-07T04:01:30.255Z,17.85
2023-06-07T04:03:57.408Z,17.85
2023-06-07T04:06:28.935Z,17.84
2023-06-07T04:09:00.601Z,17.83
2023-06-07T04:11:28.291Z,17.81
2023-06-07T04:13:55.737Z,17.82
2023-06-07T04:16:22.743Z,17.82
2023-06-07T04:18:49.574Z,17.81
2023-06-07T04:21:16.453Z,17.82
2023-06-07T04:23:43.354Z,17.82
2023-06-07T04:26:10.237Z,17.82
2023-06-07T04:28:37.242Z,17.81
2023-06-07T04:31:04.090Z,17.82
2023-06-07T04:33:30.842Z,17.81
2023-06-07T04:35:59.099Z,17.82
2023-06-07T04:38:27.193Z,17.81
2023-06-07T04:40:54.607Z,17.81
2023-06-07T04:43:21.616Z,17.81
2023-06-07T04:45:55.383Z,17.81
2023-06-07T04:48:27.424Z,17.81
2023-06-07T04:50:55.810Z,17.80
2023-06-07T04:53:22.592Z,17.80
2023-06-07T04:55:50.480Z,17.82
2023-06-07T04:58:17.864Z,17.81
2023-06-07T05:00:45.013Z,17.81
2023-06-07T05:03:14.582Z,17.79
2023-06-07T05:05:41.503Z,17.79
2023-06-07T05:08:08.409Z,17.81
2023-06-07T05:10:35.236Z,17.81
2023-06-07T05:13:02.323Z,17.80
2023-06-07T05:15:29.768Z,17.81
2023-06-07T05:17:56.624Z,17.81
2023-06-07T05:20:26.082Z,17.82
2023-06-07T05:22:53.720Z,17.83
2023-06-07T05:25:20.896Z,17.84
2023-06-07T05:28:03.638Z,17.84
2023-06-07T05:30:37.550Z,17.85
2023-06-07T05:33:05.549Z,17.86
2023-06-07T05:35:32.622Z,17.86
2023-06-07T05:37:59.777Z,17.87
2023-06-07T05:40:26.559Z,17.89
2023-06-07T05:42:53.317Z,17.90
2023-06-07T05:45:21.897Z,17.92
2023-06-07T05:47:49.446Z,17.93
2023-06-07T05:50:16.883Z,17.95
2023-06-07T05:52:43.707Z,17.97
2023-06-07T05:55:10.518Z,17.98
2023-06-07T05:57:38.495Z,17.99
2023-06-07T06:00:12.666Z,18.01
2023-06-07T06:02:40.748Z,18.04
2023-06-07T06:05:08.222Z,18.06
2023-06-07T06:07:35.059Z,18.08
2023-06-07T06:10:02.058Z,18.10
2023-06-07T06:12:28.931Z,18.13
2023-06-07T06:14:56.140Z,18.17
2023-06-07T06:17:23.748Z,18.18
2023-06-07T06:19:50.556Z,18.21
2023-06-07T06:22:17.932Z,18.25
2023-06-07T06:24:44.930Z,18.26
2023-06-07T06:27:12.988Z,18.29
2023-06-07T06:29:39.848Z,18.31
2023-06-07T06:32:07.426Z,18.34
2023-06-07T06:34:34.279Z,18.37
2023-06-07T06:37:01.981Z,18.38
2023-06-07T06:39:28.823Z,18.41
2023-06-07T06:41:55.914Z,18.44
2023-06-07T06:44:22.688Z,18.46
2023-06-07T06:46:52.544Z,18.49
2023-06-07T06:49:19.363Z,18.51
2023-06-07T06:51:47.106Z,18.53
2023-06-07T06:54:14.214Z,18.55
2023-06-07T06:56:41.151Z,18.58
2023-06-07T06:59:07.961Z,18.58
2023-06-07T07:01:47.214Z,18.60
2023-06-07T07:04:15.676Z,18.61
2023-06-07T07:06:43.546Z,18.62
2023-06-07T07:09:10.938Z,18.65
2023-06-07T07:11:38.290Z,18.67
2023-06-07T07:14:05.386Z,18.68
2023-06-07T07:16:32.613Z,18.70
2023-06-07T07:18:59.809Z,18.72
2023-06-07T07:21:28.123Z,18.74
2023-06-07T07:23:56.629Z,18.75
2023-06-07T07:26:23.796Z,18.76
2023-06-07T07:28:50.978Z,18.77
2023-06-07T07:31:17.800Z,18.78
2023-06-07T07:33:44.557Z,18.79
2023-06-07T07:36:11.394Z,18.79
2023-06-07T07:38:39.156Z,18.79
2023-06-07T07:41:06.687Z,18.80
2023-06-07T07:43:37.713Z,18.81
2023-06-07T07:46:05.201Z,18.80
2023-06-07T07:48:32.204Z,18.81
2023-06-07T07:50:59.269Z,18.81
2023-06-07T07:53:26.116Z,18.82
2023-06-07T07:55:52.904Z,18.83
2023-06-07T07:58:19.790Z,18.83
2023-06-07T08:00:46.649Z,18.83
2023-06-07T08:03:14.298Z,18.86
2023-06-07T08:05:41.230Z,18.87
2023-06-07T08:08:08.334Z,18.87
2023-06-07T08:10:35.192Z,18.89
2023-06-07T08:13:01.992Z,18.92
2023-06-07T08:15:28.802Z,18.94
2023-06-07T08:17:55.893Z,18.97
2023-06-07T08:20:22.791Z,19.00
2023-06-07T08:22:54.524Z,19.05
2023-06-07T08:25:21.672Z,19.09
2023-06-07T08:27:48.469Z,19.13
2023-06-07T08:30:15.950Z,19.18
2023-06-07T08:32:44.868Z,19.23
2023-06-07T08:35:12.274Z,19.26
2023-06-07T08:37:39.319Z,19.29
2023-06-07T08:40:07.534Z,19.32
2023-06-07T08:42:34.882Z,19.36
2023-06-07T08:45:02.265Z,19.38
2023-06-07T08:47:29.792Z,19.42
2023-06-07T08:49:57.901Z,19.47
2023-06-07T08:52:25.685Z,19.50
2023-06-07T08:54:56.107Z,19.56
2023-06-07T08:57:23.440Z,19.62
2023-06-07T08:59:50.645Z,19.70
2023-06-07T09:02:18.199Z,19.79
2023-06-07T09:04:46.275Z,19.90
2023-06-07T09:07:13.608Z,20.02
2023-06-07T09:09:41.873Z,20.14
2023-06-07T09:12:09.101Z,20.26
2023-06-07T09:14:37.201Z,20.38
2023-06-07T09:17:04.336Z,20.50
2023-06-07T09:19:31.911Z,20.60
2023-06-07T09:21:58.776Z,20.71
2023-06-07T09:24:29.760Z,20.82
2023-06-07T09:26:59.447Z,20.91
2023-06-07T09:29:30.454Z,21.00
2023-06-07T09:31:57.982Z,21.09
2023-06-07T09:34:27.442Z,21.17
2023-06-07T09:36:55.481Z,21.24
2023-06-07T09:39:24.600Z,21.32
2023-06-07T09:41:53.308Z,21.38
2023-06-07T09:44:27.450Z,21.45
2023-06-07T09:46:55.165Z,21.52
2023-06-07T09:49:35.478Z,21.62
2023-06-07T09:52:03.534Z,21.73
2023-06-07T09:54:47.199Z,21.86
2023-06-07T09:57:34.889Z,21.96
2023-06-07T10:00:11.978Z,22.08
2023-06-07T10:02:38.998Z,22.16
2023-06-07T10:05:05.903Z,22.24
2023-06-07T10:07:37.916Z,22.30
2023-06-07T10:10:09.710Z,22.34
2023-06-07T10:12:41.516Z,22.42
2023-06-07T10:15:11.111Z,22.49
2023-06-07T10:17:53.660Z,22.55
2023-06-07T10:20:35.015Z,22.61
2023-06-07T10:23:05.359Z,22.63
2023-06-07T10:25:40.641Z,22.66
2023-06-07T10:28:26.261Z,22.72
2023-06-07T10:30:56.737Z,22.79
2023-06-07T10:33:27.460Z,22.90
2023-06-07T10:35:56.722Z,22.99
2023-06-07T10:38:23.653Z,23.02
2023-06-07T10:40:50.530Z,23.08
2023-06-07T10:43:17.560Z,23.15
2023-06-07T10:45:44.512Z,23.22
2023-06-07T10:48:37.071Z,23.29
2023-06-07T10:51:04.162Z,23.37
2023-06-07T10:53:50.418Z,23.44
2023-06-07T10:56:29.181Z,23.53
2023-06-07T10:58:58.053Z,23.62
2023-06-07T11:01:26.796Z,23.66
2023-06-07T11:03:54.978Z,23.71
2023-06-07T11:06:22.142Z,23.76
2023-06-07T11:08:49.773Z,23.83
2023-06-07T11:11:39.771Z,23.89
2023-06-07T11:14:06.809Z,23.94
2023-06-07T11:16:33.664Z,23.99
2023-06-07T11:19:10.418Z,24.07
2023-06-07T11:21:55.270Z,24.13
2023-06-07T11:24:22.891Z,24.27
2023-06-07T11:26:51.700Z,24.37
2023-06-07T11:29:19.446Z,24.50
2023-06-07T11:32:00.974Z,24.63
2023-06-07T11:34:32.332Z,24.73
2023-06-07T11:37:14.820Z,24.85
2023-06-07T11:39:41.905Z,24.96
2023-06-07T11:42:08.981Z,25.05
2023-06-07T11:44:36.161Z,25.17
2023-06-07T11:47:07.072Z,25.28
2023-06-07T11:49:36.345Z,25.38
2023-06-07T11:52:03.390Z,25.47
2023-06-07T11:54:30.367Z,25.55
2023-06-07T11:56:57.503Z,25.63
2023-06-07T11:59:24.831Z,25.71
2023-06-07T12:01:53.706Z,25.77
2023-06-07T12:04:22.449Z,25.82
2023-06-07T12:06:50.527Z,25.84
2023-06-07T12:09:20.973Z,25.89
2023-06-07T12:11:48.496Z,25.92
2023-06-07T12:14:31.974Z,25.97
2023-06-07T12:17:00.417Z,26.05
2023-06-07T12:19:27.280Z,26.13
2023-06-07T12:21:57.643Z,26.23
2023-06-07T12:24:24.516Z,26.29
2023-06-07T12:26:57.717Z,26.37
2023-06-07T12:29:30.859Z,26.46
2023-06-07T12:31:58.473Z,26.54
2023-06-07T12:34:30.307Z,26.59
2023-06-07T12:36:57.703Z,26.62
2023-06-07T12:39:29.277Z,26.65
2023-06-07T12:41:56.828Z,26.68
2023-06-07T12:44:24.859Z,26.69
2023-06-07T12:46:51.885Z,26.68
2023-06-07T12:49:18.879Z,26.67
2023-06-07T12:51:45.904Z,26.65
2023-06-07T12:54:12.749Z,26.64
2023-06-07T12:56:39.541Z,26.67
2023-06-07T12:59:06.326Z,26.71
2023-06-07T13:01:33.409Z,26.71
2023-06-07T13:04:01.092Z,26.67
2023-06-07T13:06:29.558Z,26.55
2023-06-07T13:09:05.428Z,26.38
2023-06-07T13:11:32.368Z,26.19
2023-06-07T13:13:59.416Z,26.01
2023-06-07T13:16:27.487Z,25.85
2023-06-07T13:18:54.421Z,25.73
2023-06-07T13:21:21.429Z,25.60
2023-06-07T13:23:48.254Z,25.51
2023-06-07T13:26:16.273Z,25.41
2023-06-07T13:28:45.345Z,25.32
2023-06-07T13:31:12.823Z,25.26
2023-06-07T13:33:39.650Z,25.21
2023-06-07T13:36:06.633Z,25.15
2023-06-07T13:38:34.135Z,25.09
2023-06-07T13:41:01.725Z,25.05
2023-06-07T13:43:44.369Z,25.03
2023-06-07T13:46:16.206Z,25.01
2023-06-07T13:48:43.082Z,24.96
2023-06-07T13:51:12.101Z,24.93
2023-06-07T13:53:44.521Z,24.87
2023-06-07T13:56:11.640Z,24.80
2023-06-07T13:58:38.718Z,24.73
2023-06-07T14:01:06.849Z,24.66
2023-06-07T14:03:35.554Z,24.60
2023-06-07T14:06:03.568Z,24.55
2023-06-07T14:08:30.553Z,24.51
2023-06-07T14:11:00.546Z,24.46
2023-06-07T14:13:28.230Z,24.41
2023-06-07T14:15:55.085Z,24.36
2023-06-07T14:18:21.910Z,24.31
2023-06-07T14:20:48.769Z,24.26
2023-06-07T14:23:34.174Z,24.25
2023-06-07T14:26:01.098Z,24.21
2023-06-07T14:28:27.979Z,24.18
2023-06-07T14:30:54.682Z,24.13
2023-06-07T14:33:21.331Z,24.11
2023-06-07T14:35:48.033Z,24.10
2023-06-07T14:38:14.703Z,24.10
2023-06-07T14:40:41.365Z,24.11
2023-06-07T14:43:08.098Z,24.14
2023-06-07T14:48:18.864Z,24.19
2023-06-07T14:50:45.614Z,24.24
2023-06-07T14:53:12.300Z,24.27
2023-06-07T14:55:38.991Z,24.28
2023-06-07T14:58:06.972Z,24.30
2023-06-07T15:00:34.824Z,24.31
2023-06-07T15:03:01.743Z,24.33
2023-06-07T15:05:29.385Z,24.36
2023-06-07T15:07:56.826Z,24.40
2023-06-07T15:10:23.580Z,24.43
2023-06-07T15:12:50.380Z,24.46
2023-06-07T15:15:17.466Z,24.49
2023-06-07T15:17:46.513Z,24.51
2023-06-07T15:20:16.188Z,24.55
2023-06-07T15:22:43.125Z,24.57
2023-06-07T15:25:10.047Z,24.59
2023-06-07T15:27:37.449Z,24.63
2023-06-07T15:30:05.212Z,24.66
2023-06-07T15:32:32.816Z,24.69
2023-06-07T15:35:00.036Z,24.71
2023-06-07T15:37:26.935Z,24.73
2023-06-07T15:39:53.671Z,24.74
2023-06-07T15:42:20.327Z,24.74
2023-06-07T15:44:47.205Z,24.77
2023-06-07T15:47:15.361Z,24.81
2023-06-07T15:49:42.189Z,24.82
2023-06-07T15:52:08.933Z,24.87
2023-06-07T15:54:35.710Z,24.90
2023-06-07T15:57:02.530Z,24.92
2023-06-07T15:59:29.297Z,24.95
2023-06-07T16:01:58.631Z,24.97
2023-06-07T16:04:25.977Z,24.98
2023-06-07T16:06:52.712Z,24.99
2023-06-07T16:09:19.622Z,25.00
2023-06-07T16:11:46.346Z,24.99
2023-06-07T16:14:13.671Z,24.98
2023-06-07T16:16:40.876Z,24.96
2023-06-07T16:19:10.312Z,24.96
2023-06-07T16:21:39.066Z,24.95
2023-06-07T16:24:06.539Z,24.94
2023-06-07T16:26:33.232Z,24.92
2023-06-07T16:29:00.008Z,24.91
2023-06-07T16:31:28.726Z,24.90
2023-06-07T16:33:55.811Z,24.90
2023-06-07T16:36:22.878Z,24.89
2023-06-07T16:38:50.539Z,24.89
2023-06-07T16:41:22.900Z,24.89
2023-06-07T16:43:50.610Z,24.88
2023-06-07T16:46:17.359Z,24.88
2023-06-07T16:48:44.253Z,24.88
2023-06-07T16:51:11.217Z,24.85
2023-06-07T16:53:38.737Z,24.83
2023-06-07T16:56:05.921Z,24.82
2023-06-07T16:58:32.876Z,24.78
2023-06-07T17:00:59.631Z,24.75
2023-06-07T17:03:26.414Z,24.71
2023-06-07T17:05:54.060Z,24.71
2023-06-07T17:08:20.896Z,24.69
2023-06-07T17:10:49.098Z,24.68
2023-06-07T17:13:16.663Z,24.67
2023-06-07T17:15:43.436Z,24.66
2023-06-07T17:18:13.504Z,24.66
2023-06-07T17:20:42.044Z,24.64
2023-06-07T17:23:08.953Z,24.63
2023-06-07T17:25:36.344Z,24.60
2023-06-07T17:28:03.207Z,24.57
2023-06-07T17:30:31.172Z,24.56
2023-06-07T17:32:58.180Z,24.54
2023-06-07T17:35:25.058Z,24.51
2023-06-07T17:37:52.088Z,24.48
2023-06-07T17:40:18.816Z,24.45
2023-06-07T17:42:45.550Z,24.42
2023-06-07T17:45:12.352Z,24.39
2023-06-07T17:47:53.208Z,24.34
2023-06-07T17:50:37.220Z,24.30
2023-06-07T17:53:13.295Z,24.26
2023-06-07T17:55:41.007Z,24.21
2023-06-07T17:58:07.707Z,24.16
2023-06-07T18:00:34.563Z,24.12
2023-06-07T18:03:02.536Z,24.07
2023-06-07T18:05:29.423Z,24.02
2023-06-07T18:07:56.136Z,23.98
2023-06-07T18:10:22.841Z,23.93
2023-06-07T18:12:49.683Z,23.89
2023-06-07T18:15:16.583Z,23.84
2023-06-07T18:17:43.819Z,23.80
2023-06-07T18:20:11.004Z,23.76
2023-06-07T18:22:37.739Z,23.71
2023-06-07T18:25:04.941Z,23.67
2023-06-07T18:27:31.667Z,23.62
2023-06-07T18:29:58.358Z,23.55
2023-06-07T18:32:25.061Z,23.49
2023-06-07T18:34:51.978Z,23.41
2023-06-07T18:37:18.828Z,23.36
2023-06-07T18:39:45.593Z,23.30
2023-06-07T18:42:14.326Z,23.22
2023-06-07T18:44:43.202Z,23.16
2023-06-07T18:47:09.922Z,23.10
2023-06-07T18:49:36.757Z,23.04
2023-06-07T18:52:08.080Z,23.00
2023-06-07T18:54:34.839Z,22.93
2023-06-07T18:57:03.412Z,22.87
2023-06-07T18:59:30.241Z,22.82
2023-06-07T19:01:58.533Z,22.76
2023-06-07T19:04:26.994Z,22.72
2023-06-07T19:06:55.452Z,22.65
2023-06-07T19:09:22.285Z,22.61
2023-06-07T19:11:49.019Z,22.57
2023-06-07T19:14:17.266Z,22.52
2023-06-07T19:16:44.389Z,22.48
2023-06-07T19:19:11.248Z,22.45
2023-06-07T19:21:37.992Z,22.41
2023-06-07T19:24:05.011Z,22.38
2023-06-07T19:26:32.009Z,22.35
2023-06-07T19:28:59.376Z,22.31
2023-06-07T19:31:26.941Z,22.27
2023-06-07T19:33:54.683Z,22.23
2023-06-07T19:36:21.521Z,22.19
2023-06-07T19:38:48.254Z,22.17
2023-06-07T19:41:14.973Z,22.12
2023-06-07T19:43:41.833Z,22.10
2023-06-07T19:46:08.703Z,22.04
2023-06-07T19:48:35.472Z,22.04
2023-06-07T19:51:02.193Z,22.00
2023-06-07T19:53:28.889Z,21.98
2023-06-07T19:55:56.307Z,21.94
2023-06-07T19:58:23.234Z,21.91
2023-06-07T20:00:49.983Z,21.87
2023-06-07T20:03:16.774Z,21.85
2023-06-07T20:05:43.469Z,21.80
2023-06-07T20:08:11.654Z,21.79
2023-06-07T20:10:38.384Z,21.76
2023-06-07T20:13:05.076Z,21.74
2023-06-07T20:15:31.893Z,21.71
2023-06-07T20:17:58.616Z,21.68
2023-06-07T20:20:25.997Z,21.65
2023-06-07T20:22:52.756Z,21.65
2023-06-07T20:25:19.572Z,21.62
2023-06-07T20:27:46.284Z,21.57
2023-06-07T20:30:13.595Z,21.55
2023-06-07T20:32:40.416Z,21.53
2023-06-07T20:35:07.732Z,21.51
2023-06-07T20:37:35.218Z,21.49
2023-06-07T20:40:02.161Z,21.44
2023-06-07T20:42:29.017Z,21.41
2023-06-07T20:44:56.051Z,21.38
2023-06-07T20:47:23.130Z,21.36
2023-06-07T20:49:50.146Z,21.33
2023-06-07T20:52:16.950Z,21.31
2023-06-07T20:54:43.857Z,21.28
2023-06-07T20:57:10.709Z,21.25
2023-06-07T20:59:44.918Z,21.25
2023-06-07T21:02:11.763Z,21.22
2023-06-07T21:04:38.578Z,21.19
2023-06-07T21:07:05.713Z,21.17
2023-06-07T21:09:32.502Z,21.13
2023-06-07T21:11:59.332Z,21.11
2023-06-07T21:14:26.155Z,21.07
2023-06-07T21:16:52.940Z,21.06
2023-06-07T21:19:19.771Z,21.03
2023-06-07T21:21:46.533Z,21.01
2023-06-07T21:24:13.483Z,21.00
2023-06-07T21:26:40.664Z,20.98
2023-06-07T21:29:09.528Z,20.94
2023-06-07T21:31:38.334Z,20.90
2023-06-07T21:34:05.299Z,20.91
2023-06-07T21:36:32.111Z,20.86
2023-06-07T21:38:59.134Z,20.84
2023-06-07T21:41:28.959Z,20.83
2023-06-07T21:43:55.942Z,20.80
2023-06-07T21:46:23.050Z,20.76
2023-06-07T21:48:49.936Z,20.74
2023-06-07T21:51:16.799Z,20.73
2023-06-07T21:53:43.674Z,20.69
2023-06-07T21:56:10.445Z,20.68
2023-06-07T21:58:37.313Z,20.67
2023-06-07T22:01:04.357Z,20.65
2023-06-07T22:03:33.344Z,20.64
2023-06-07T22:06:01.894Z,20.62
2023-06-07T22:08:29.304Z,20.58
2023-06-07T22:10:56.288Z,20.55
2023-06-07T22:13:23.391Z,20.53
2023-06-07T22:15:53.532Z,20.51
2023-06-07T22:18:21.246Z,20.48
2023-06-07T22:20:48.596Z,20.45
2023-06-07T22:23:15.989Z,20.42
2023-06-07T22:25:44.796Z,20.40
2023-06-07T22:28:14.163Z,20.37
2023-06-07T22:30:42.275Z,20.34
2023-06-07T22:33:10.156Z,20.30
2023-06-07T22:35:38.571Z,20.27
2023-06-07T22:38:07.264Z,20.24
2023-06-07T22:40:36.727Z,20.19
2023-06-07T22:43:03.518Z,20.17
2023-06-07T22:45:31.537Z,20.13
2023-06-07T22:48:03.774Z,20.10
2023-06-07T22:50:35.292Z,20.06
2023-06-07T22:53:03.691Z,20.03
2023-06-07T22:55:32.290Z,19.96
2023-06-07T22:58:01.352Z,19.93
2023-06-07T23:00:29.174Z,19.90
2023-06-07T23:02:58.509Z,19.89
2023-06-07T23:05:28.312Z,19.84
2023-06-07T23:07:56.597Z,19.81
2023-06-07T23:10:35.549Z,19.76
2023-06-07T23:13:08.394Z,19.76
2023-06-07T23:15:36.641Z,19.74
2023-06-07T23:18:03.961Z,19.70
2023-06-07T23:20:34.308Z,19.64
2023-06-07T23:23:04.812Z,19.60
2023-06-07T23:25:32.436Z,19.57
2023-06-07T23:28:18.087Z,19.55
2023-06-07T23:30:44.913Z,19.53
2023-06-07T23:33:13.039Z,19.50
2023-06-07T23:35:42.273Z,19.44
2023-06-07T23:38:09.267Z,19.42
2023-06-07T23:40:36.094Z,19.36
2023-06-07T23:43:05.302Z,19.35
2023-06-07T23:45:32.432Z,19.29
2023-06-07T23:48:00.616Z,19.26
2023-06-07T23:50:28.102Z,19.21
2023-06-07T23:52:54.951Z,19.18
2023-06-07T23:55:21.912Z,19.14
2023-06-07T23:57:48.746Z,19.11
